createdAt,value
2022-11-14T00:01:12.555Z,5.17
2022-11-14T00:03:39.196Z,4.84
2022-11-14T00:06:07.258Z,4.71
2022-11-14T00:08:34.600Z,4.72
2022-11-14T00:11:01.255Z,4.98
2022-11-14T00:13:27.829Z,4.96
2022-11-14T00:15:54.489Z,5.14
2022-11-14T00:18:21.670Z,5.10
2022-11-14T00:20:49.789Z,5.03
2022-11-14T00:23:16.470Z,4.98
2022-11-14T00:25:45.222Z,5.13
2022-11-14T00:28:12.491Z,4.99
2022-11-14T00:30:39.078Z,5.03
2022-11-14T00:33:05.654Z,5.32
2022-11-14T00:35:32.245Z,5.34
2022-11-14T00:37:58.873Z,5.33
2022-11-14T00:40:25.483Z,5.32
2022-11-14T00:42:52.065Z,5.22
2022-11-14T00:45:18.634Z,5.25
2022-11-14T00:47:45.251Z,5.28
2022-11-14T00:50:11.888Z,5.01
2022-11-14T00:52:38.484Z,5.06
2022-11-14T00:55:05.748Z,5.04
2022-11-14T00:57:32.341Z,5.12
2022-11-14T00:59:58.915Z,5.11
2022-11-14T01:02:25.549Z,5.06
2022-11-14T01:04:52.155Z,5.20
2022-11-14T01:07:18.816Z,5.12
2022-11-14T01:09:45.417Z,5.12
2022-11-14T01:12:12.046Z,5.04
2022-11-14T01:14:40.850Z,5.20
2022-11-14T01:17:07.922Z,4.66
2022-11-14T01:19:34.800Z,4.49
2022-11-14T01:22:05.907Z,4.47
2022-11-14T01:24:33.991Z,4.59
2022-11-14T01:27:01.005Z,4.49
2022-11-14T01:29:27.907Z,4.29
2022-11-14T01:31:54.552Z,4.39
2022-11-14T01:34:21.556Z,4.34
2022-11-14T01:36:48.232Z,4.32
2022-11-14T01:39:14.823Z,4.45
2022-11-14T01:41:41.402Z,4.68
2022-11-14T01:44:18.758Z,4.60
2022-11-14T01:46:54.961Z,4.34
2022-11-14T01:49:38.085Z,4.63
2022-11-14T01:52:12.191Z,4.89
2022-11-14T01:54:43.454Z,4.61
2022-11-14T01:57:12.890Z,4.61
2022-11-14T01:59:44.874Z,4.50
2022-11-14T02:02:21.860Z,4.06
2022-11-14T02:05:10.903Z,4.31
2022-11-14T02:07:40.316Z,4.69
2022-11-14T02:10:21.243Z,4.81
2022-11-14T02:12:49.764Z,4.90
2022-11-14T02:15:16.473Z,4.81
2022-11-14T02:17:44.407Z,4.81
2022-11-14T02:20:11.469Z,4.77
2022-11-14T02:22:42.121Z,4.87
2022-11-14T02:25:10.555Z,4.91
2022-11-14T02:27:39.474Z,4.97
2022-11-14T02:30:09.065Z,4.89
2022-11-14T02:32:56.942Z,4.93
2022-11-14T02:35:22.319Z,4.89
2022-11-14T02:37:48.909Z,4.91
2022-11-14T02:40:15.822Z,4.95
2022-11-14T02:42:42.429Z,5.22
2022-11-14T02:45:10.535Z,5.09
2022-11-14T02:47:37.109Z,5.01
2022-11-14T02:50:04.056Z,5.02
2022-11-14T02:52:30.655Z,4.71
2022-11-14T02:54:57.239Z,4.72
2022-11-14T02:57:23.815Z,4.91
2022-11-14T02:59:50.404Z,4.83
2022-11-14T03:02:17.003Z,4.78
2022-11-14T03:04:43.642Z,4.92
2022-11-14T03:07:10.589Z,4.97
2022-11-14T03:09:37.255Z,4.89
2022-11-14T03:12:03.988Z,4.95
2022-11-14T03:14:31.390Z,5.00
2022-11-14T03:16:58.153Z,5.06
2022-11-14T03:19:24.731Z,4.94
2022-11-14T03:21:51.315Z,4.97
2022-11-14T03:24:17.944Z,4.23
2022-11-14T03:26:44.745Z,4.38
2022-11-14T03:29:11.334Z,4.50
2022-11-14T03:31:37.931Z,4.51
2022-11-14T03:34:04.529Z,4.33
2022-11-14T03:36:31.441Z,4.16
2022-11-14T03:38:58.019Z,4.24
2022-11-14T03:41:24.614Z,4.34
2022-11-14T03:43:51.181Z,4.42
2022-11-14T03:46:17.822Z,4.43
2022-11-14T03:48:44.392Z,4.56
2022-11-14T03:51:11.048Z,4.62
2022-11-14T03:53:37.703Z,4.60
2022-11-14T03:56:04.587Z,4.73
2022-11-14T03:58:31.463Z,4.92
2022-11-14T04:00:58.471Z,4.94
2022-11-14T04:03:25.573Z,4.70
2022-11-14T04:05:52.195Z,4.80
2022-11-14T04:08:18.768Z,4.76
2022-11-14T04:10:48.902Z,4.72
2022-11-14T04:13:15.675Z,4.63
2022-11-14T04:15:42.237Z,4.78
2022-11-14T04:18:08.778Z,4.93
2022-11-14T04:20:35.364Z,5.08
2022-11-14T04:23:01.956Z,5.21
2022-11-14T04:25:28.574Z,4.93
2022-11-14T04:27:55.234Z,4.95
2022-11-14T04:30:21.903Z,4.81
2022-11-14T04:32:49.271Z,4.60
2022-11-14T04:35:16.193Z,4.52
2022-11-14T04:37:42.817Z,4.46
2022-11-14T04:40:09.938Z,4.46
2022-11-14T04:42:36.525Z,4.63
2022-11-14T04:45:03.815Z,4.47
2022-11-14T04:47:30.466Z,4.60
2022-11-14T04:49:57.050Z,4.35
2022-11-14T04:52:23.639Z,4.02
2022-11-14T04:54:50.197Z,4.36
2022-11-14T04:57:17.924Z,4.28
2022-11-14T04:59:44.723Z,4.08
2022-11-14T05:02:11.849Z,3.90
2022-11-14T05:04:38.454Z,4.30
2022-11-14T05:07:05.084Z,4.05
2022-11-14T05:09:31.759Z,4.18
2022-11-14T05:11:58.320Z,4.06
2022-11-14T05:14:24.913Z,4.35
2022-11-14T05:16:51.518Z,4.55
2022-11-14T05:19:18.178Z,4.40
2022-11-14T05:21:44.762Z,4.09
2022-11-14T05:24:11.366Z,4.00
2022-11-14T05:26:38.249Z,4.30
2022-11-14T05:29:04.937Z,4.41
2022-11-14T05:31:31.592Z,3.95
2022-11-14T05:33:58.186Z,4.05
2022-11-14T05:36:24.776Z,4.16
2022-11-14T05:38:51.358Z,4.38
2022-11-14T05:41:22.743Z,4.45
2022-11-14T05:43:49.321Z,4.58
2022-11-14T05:46:16.639Z,4.64
2022-11-14T05:48:43.538Z,4.85
2022-11-14T05:51:12.925Z,4.64
2022-11-14T05:53:40.407Z,4.40
2022-11-14T05:56:10.736Z,4.25
2022-11-14T05:58:37.538Z,4.26
2022-11-14T06:01:14.959Z,4.13
2022-11-14T06:03:44.169Z,4.14
2022-11-14T06:06:13.255Z,4.08
2022-11-14T06:08:40.875Z,4.14
2022-11-14T06:11:21.328Z,4.26
2022-11-14T06:13:48.331Z,4.38
2022-11-14T06:16:19.375Z,4.26
2022-11-14T06:18:46.586Z,4.43
2022-11-14T06:21:19.003Z,4.57
2022-11-14T06:23:46.770Z,4.76
2022-11-14T06:26:33.653Z,5.00
2022-11-14T06:29:00.786Z,4.96
2022-11-14T06:31:28.033Z,4.63
2022-11-14T06:33:54.894Z,4.47
2022-11-14T06:36:21.522Z,4.28
2022-11-14T06:38:48.226Z,4.28
2022-11-14T06:41:17.886Z,4.63
2022-11-14T06:43:50.085Z,4.64
2022-11-14T06:46:18.937Z,4.64
2022-11-14T06:48:46.414Z,4.48
2022-11-14T06:51:15.040Z,4.48
2022-11-14T06:53:42.301Z,4.55
2022-11-14T06:56:17.382Z,4.69
2022-11-14T06:58:46.880Z,4.77
2022-11-14T07:01:17.707Z,5.01
2022-11-14T07:03:45.204Z,5.04
2022-11-14T07:06:14.571Z,4.97
2022-11-14T07:08:41.193Z,4.95
2022-11-14T07:11:12.857Z,5.09
2022-11-14T07:13:39.474Z,5.01
2022-11-14T07:16:06.293Z,4.89
2022-11-14T07:18:34.045Z,5.00
2022-11-14T07:21:04.633Z,5.17
2022-11-14T07:23:32.586Z,5.43
2022-11-14T07:26:04.610Z,5.55
2022-11-14T07:28:32.327Z,5.49
2022-11-14T07:30:59.183Z,5.21
2022-11-14T07:33:25.793Z,5.55
2022-11-14T07:35:52.407Z,5.93
2022-11-14T07:38:18.998Z,6.10
2022-11-14T07:41:03.038Z,6.22
2022-11-14T07:43:29.848Z,6.41
2022-11-14T07:46:00.999Z,6.63
2022-11-14T07:48:29.467Z,6.72
2022-11-14T07:51:00.674Z,7.03
2022-11-14T07:53:27.756Z,7.35
2022-11-14T07:55:54.731Z,7.55
2022-11-14T07:58:21.375Z,7.77
2022-11-14T08:00:48.164Z,7.73
2022-11-14T08:03:14.782Z,7.98
2022-11-14T08:05:41.392Z,8.37
2022-11-14T08:08:08.009Z,8.74
2022-11-14T08:10:34.709Z,8.97
2022-11-14T08:13:30.959Z,9.04
2022-11-14T08:15:50.395Z,9.38
2022-11-14T08:18:16.979Z,9.46
2022-11-14T08:20:44.216Z,9.72
2022-11-14T08:23:11.376Z,9.63
2022-11-14T08:25:38.007Z,10.30
2022-11-14T08:28:04.658Z,10.75
2022-11-14T08:30:31.346Z,10.67
2022-11-14T08:33:01.018Z,10.04
2022-11-14T08:35:27.580Z,10.53
2022-11-14T08:37:54.173Z,11.13
2022-11-14T08:40:20.775Z,11.06
2022-11-14T08:42:47.408Z,11.12
2022-11-14T08:45:14.064Z,11.39
2022-11-14T08:47:40.693Z,12.06
2022-11-14T08:50:07.513Z,12.03
2022-11-14T08:52:34.100Z,12.47
2022-11-14T08:55:00.671Z,12.29
2022-11-14T08:57:27.301Z,12.13
2022-11-14T08:59:55.458Z,12.44
2022-11-14T09:02:22.041Z,11.72
2022-11-14T09:04:48.671Z,11.84
2022-11-14T09:07:15.489Z,11.94
2022-11-14T09:09:42.261Z,12.26
2022-11-14T09:12:08.853Z,12.60
2022-11-14T09:14:35.431Z,13.20
2022-11-14T09:17:05.855Z,13.09
2022-11-14T09:19:32.874Z,12.81
2022-11-14T09:21:59.522Z,13.51
2022-11-14T09:24:26.141Z,14.04
2022-11-14T09:26:56.652Z,14.35
2022-11-14T09:29:23.858Z,14.53
2022-11-14T09:31:51.986Z,14.66
2022-11-14T09:34:18.699Z,14.82
2022-11-14T09:36:46.657Z,15.36
2022-11-14T09:39:13.540Z,16.17
2022-11-14T09:42:09.118Z,15.83
2022-11-14T09:44:49.371Z,15.80
2022-11-14T09:47:23.182Z,16.11
2022-11-14T09:49:53.500Z,16.37
2022-11-14T09:52:46.279Z,16.66
2022-11-14T09:55:22.680Z,16.46
2022-11-14T09:57:49.456Z,17.10
2022-11-14T10:00:19.259Z,18.22
2022-11-14T10:02:59.642Z,18.44
2022-11-14T10:05:50.718Z,19.54
2022-11-14T10:08:23.265Z,19.53
2022-11-14T10:10:58.161Z,20.18
2022-11-14T10:14:08.469Z,19.35
2022-11-14T10:16:43.814Z,19.69
2022-11-14T10:19:42.883Z,19.69
2022-11-14T10:22:12.425Z,19.73
2022-11-14T10:24:57.114Z,20.61
2022-11-14T10:27:34.981Z,20.65
2022-11-14T10:30:10.115Z,20.63
2022-11-14T10:32:45.319Z,21.01
2022-11-14T10:35:19.901Z,21.19
2022-11-14T10:38:18.140Z,21.29
2022-11-14T10:40:48.032Z,22.23
2022-11-14T10:43:35.126Z,22.40
2022-11-14T10:46:20.821Z,21.15
2022-11-14T10:48:50.261Z,19.42
2022-11-14T10:51:38.726Z,18.61
2022-11-14T10:54:27.153Z,18.38
2022-11-14T10:56:55.404Z,18.89
2022-11-14T10:59:23.082Z,19.64
2022-11-14T11:01:55.252Z,20.09
2022-11-14T11:04:38.669Z,20.41
2022-11-14T11:07:08.036Z,20.41
2022-11-14T11:09:58.277Z,20.85
2022-11-14T11:12:36.832Z,21.29
2022-11-14T11:15:23.148Z,21.96
2022-11-14T11:18:00.060Z,21.01
2022-11-14T11:20:26.796Z,20.63
2022-11-14T11:23:11.486Z,20.32
2022-11-14T11:25:40.160Z,21.27
2022-11-14T11:28:21.348Z,21.84
2022-11-14T11:31:05.635Z,23.20
2022-11-14T11:33:34.340Z,23.22
2022-11-14T11:36:12.420Z,23.65
2022-11-14T11:38:40.756Z,23.52
2022-11-14T11:42:06.221Z,23.01
2022-11-14T11:44:19.218Z,23.06
2022-11-14T11:47:00.997Z,23.26
2022-11-14T11:49:30.492Z,23.44
2022-11-14T11:52:05.502Z,23.40
2022-11-14T11:54:58.599Z,23.57
2022-11-14T11:57:32.346Z,23.39
2022-11-14T12:00:14.445Z,23.21
2022-11-14T12:02:49.978Z,22.13
2022-11-14T12:05:24.454Z,20.50
2022-11-14T12:07:53.839Z,21.21
2022-11-14T12:10:27.214Z,21.42
2022-11-14T12:13:28.136Z,22.13
2022-11-14T12:15:54.909Z,22.98
2022-11-14T12:18:21.450Z,23.41
2022-11-14T12:21:12.665Z,23.16
2022-11-14T12:24:18.751Z,22.67
2022-11-14T12:26:57.087Z,23.11
2022-11-14T12:29:42.656Z,23.20
2022-11-14T12:32:15.662Z,24.06
2022-11-14T12:34:45.753Z,25.66
2022-11-14T12:37:35.238Z,24.88
2022-11-14T12:40:23.214Z,23.77
2022-11-14T12:42:50.077Z,24.34
2022-11-14T12:45:35.015Z,24.62
2022-11-14T12:48:28.794Z,24.18
2022-11-14T12:50:57.170Z,25.03
2022-11-14T12:53:39.438Z,25.20
2022-11-14T12:56:09.096Z,25.87
2022-11-14T12:59:03.499Z,25.60
2022-11-14T13:01:30.082Z,25.82
2022-11-14T13:04:06.222Z,25.67
2022-11-14T13:06:54.231Z,26.21
2022-11-14T13:09:34.234Z,27.21
2022-11-14T13:12:39.013Z,26.14
2022-11-14T13:15:49.124Z,24.50
2022-11-14T13:18:40.727Z,24.75
2022-11-14T13:21:45.660Z,25.02
2022-11-14T13:24:19.998Z,23.87
2022-11-14T13:26:52.613Z,23.57
2022-11-14T13:29:41.022Z,23.18
2022-11-14T13:32:11.826Z,23.00
2022-11-14T13:34:57.844Z,22.17
2022-11-14T13:37:52.036Z,22.82
2022-11-14T13:40:28.375Z,23.05
2022-11-14T13:43:22.775Z,22.43
2022-11-14T13:45:58.755Z,21.58
2022-11-14T13:48:47.722Z,20.91
2022-11-14T13:51:48.552Z,21.72
2022-11-14T13:54:23.495Z,21.80
2022-11-14T13:57:01.905Z,21.27
2022-11-14T14:00:19.576Z,21.16
2022-11-14T14:02:59.183Z,20.57
2022-11-14T14:05:38.609Z,19.52
2022-11-14T14:08:25.973Z,18.74
2022-11-14T14:10:58.471Z,17.94
2022-11-14T14:13:55.286Z,17.71
2022-11-14T14:16:34.257Z,17.63
2022-11-14T14:19:08.292Z,17.13
2022-11-14T14:22:06.893Z,17.84
2022-11-14T14:24:50.764Z,18.10
2022-11-14T14:27:32.306Z,18.26
2022-11-14T14:30:12.522Z,18.40
2022-11-14T14:32:39.385Z,18.11
2022-11-14T14:35:26.240Z,17.87
2022-11-14T14:37:55.110Z,16.95
2022-11-14T14:40:35.957Z,15.81
2022-11-14T14:43:05.765Z,15.92
2022-11-14T14:45:45.696Z,16.49
2022-11-14T14:48:20.723Z,16.76
2022-11-14T14:50:56.060Z,17.05
2022-11-14T14:53:28.412Z,17.26
2022-11-14T14:56:16.919Z,17.45
2022-11-14T14:58:43.738Z,17.57
2022-11-14T15:01:15.876Z,17.59
2022-11-14T15:03:51.678Z,17.54
2022-11-14T15:06:18.215Z,17.60
2022-11-14T15:08:46.348Z,17.51
2022-11-14T15:11:14.935Z,17.37
2022-11-14T15:13:43.021Z,17.46
2022-11-14T15:16:10.748Z,17.38
2022-11-14T15:18:38.186Z,17.43
2022-11-14T15:21:09.505Z,17.34
2022-11-14T15:23:38.661Z,17.47
2022-11-14T15:26:13.475Z,17.00
2022-11-14T15:28:40.251Z,16.95
2022-11-14T15:31:07.269Z,16.72
2022-11-14T15:33:35.650Z,16.65
2022-11-14T15:36:11.483Z,16.09
2022-11-14T15:38:45.644Z,15.32
2022-11-14T15:41:23.786Z,15.96
2022-11-14T15:43:53.241Z,15.98
2022-11-14T15:46:25.986Z,15.87
2022-11-14T15:48:52.668Z,15.62
2022-11-14T15:51:19.265Z,15.68
2022-11-14T15:53:49.226Z,15.38
2022-11-14T15:56:15.904Z,15.55
2022-11-14T15:58:46.769Z,15.01
2022-11-14T16:01:22.680Z,15.43
2022-11-14T16:03:51.635Z,14.87
2022-11-14T16:06:18.333Z,14.94
2022-11-14T16:08:44.987Z,14.58
2022-11-14T16:11:11.570Z,14.31
2022-11-14T16:13:38.146Z,14.37
2022-11-14T16:16:04.996Z,14.16
2022-11-14T16:18:31.581Z,14.39
2022-11-14T16:20:59.478Z,14.25
2022-11-14T16:23:26.104Z,14.21
2022-11-14T16:25:52.681Z,13.78
2022-11-14T16:28:19.288Z,13.57
2022-11-14T16:30:45.868Z,13.25
2022-11-14T16:33:12.438Z,13.18
2022-11-14T16:35:39.046Z,13.25
2022-11-14T16:38:05.620Z,13.23
2022-11-14T16:40:32.188Z,13.33
2022-11-14T16:42:59.606Z,13.28
2022-11-14T16:45:26.964Z,13.36
2022-11-14T16:47:53.861Z,13.38
2022-11-14T16:50:20.734Z,13.38
2022-11-14T16:52:47.567Z,12.98
2022-11-14T16:55:14.162Z,13.11
2022-11-14T16:57:41.074Z,13.29
2022-11-14T17:00:10.826Z,13.33
2022-11-14T17:02:37.601Z,13.19
2022-11-14T17:05:04.710Z,13.20
2022-11-14T17:07:33.330Z,13.31
2022-11-14T17:10:00.539Z,13.20
2022-11-14T17:12:28.106Z,13.00
2022-11-14T17:14:54.801Z,13.02
2022-11-14T17:17:21.901Z,13.24
2022-11-14T17:19:48.716Z,13.22
2022-11-14T17:22:17.395Z,13.37
2022-11-14T17:24:44.551Z,13.42
2022-11-14T17:27:12.990Z,13.38
2022-11-14T17:29:39.865Z,13.28
2022-11-14T17:32:06.616Z,13.43
2022-11-14T17:34:33.182Z,13.11
2022-11-14T17:36:59.761Z,13.00
2022-11-14T17:39:26.418Z,13.21
2022-11-14T17:41:53.237Z,13.20
2022-11-14T17:44:19.850Z,13.06
2022-11-14T17:46:47.575Z,13.02
2022-11-14T17:49:14.179Z,12.91
2022-11-14T17:51:40.803Z,12.59
2022-11-14T17:54:07.449Z,12.36
2022-11-14T17:56:34.038Z,12.67
2022-11-14T17:59:00.729Z,12.81
2022-11-14T18:01:28.753Z,12.85
2022-11-14T18:03:58.355Z,12.70
2022-11-14T18:06:27.352Z,12.73
2022-11-14T18:08:54.633Z,12.66
2022-11-14T18:11:21.446Z,12.48
2022-11-14T18:13:48.255Z,12.39
2022-11-14T18:16:19.557Z,12.28
2022-11-14T18:18:46.293Z,12.36
2022-11-14T18:21:14.294Z,11.91
2022-11-14T18:23:41.009Z,12.05
2022-11-14T18:26:15.479Z,11.72
2022-11-14T18:28:42.424Z,11.84
2022-11-14T18:31:11.191Z,11.98
2022-11-14T18:33:38.711Z,12.00
2022-11-14T18:36:09.043Z,12.06
2022-11-14T18:38:35.732Z,11.91
2022-11-14T18:41:06.892Z,11.82
2022-11-14T18:43:34.265Z,11.66
2022-11-14T18:46:10.122Z,11.66
2022-11-14T18:48:38.684Z,11.62
2022-11-14T18:51:08.228Z,11.60
2022-11-14T18:53:36.393Z,11.62
2022-11-14T18:56:13.695Z,11.59
2022-11-14T18:58:41.382Z,11.49
2022-11-14T19:01:22.094Z,11.62
2022-11-14T19:03:48.708Z,11.48
2022-11-14T19:06:15.716Z,11.52
2022-11-14T19:08:42.557Z,11.46
2022-11-14T19:11:30.177Z,11.27
2022-11-14T19:13:57.645Z,10.86
2022-11-14T19:16:24.309Z,10.82
2022-11-14T19:18:50.925Z,10.98
2022-11-14T19:21:17.496Z,10.84
2022-11-14T19:23:44.104Z,10.89
2022-11-14T19:26:11.730Z,10.84
2022-11-14T19:28:38.395Z,10.88
2022-11-14T19:31:06.258Z,10.94
2022-11-14T19:33:33.603Z,11.02
2022-11-14T19:36:08.674Z,10.96
2022-11-14T19:38:35.295Z,10.86
2022-11-14T19:41:15.037Z,10.72
2022-11-14T19:43:45.556Z,10.90
2022-11-14T19:46:12.401Z,10.95
2022-11-14T19:48:40.552Z,11.02
2022-11-14T19:51:19.235Z,10.99
2022-11-14T19:53:46.783Z,11.00
2022-11-14T19:56:15.922Z,10.85
2022-11-14T19:58:44.939Z,10.96
2022-11-14T20:01:16.707Z,10.75
2022-11-14T20:03:43.430Z,10.76
2022-11-14T20:06:18.936Z,10.73
2022-11-14T20:08:45.558Z,10.65
2022-11-14T20:11:12.261Z,10.38
2022-11-14T20:13:42.109Z,10.50
2022-11-14T20:16:12.878Z,10.34
2022-11-14T20:18:40.901Z,10.45
2022-11-14T20:21:12.214Z,10.61
2022-11-14T20:23:39.101Z,10.62
2022-11-14T20:26:11.195Z,10.72
2022-11-14T20:28:43.597Z,10.69
2022-11-14T20:31:16.909Z,10.63
2022-11-14T20:33:47.212Z,10.73
2022-11-14T20:36:16.819Z,10.65
2022-11-14T20:38:44.691Z,10.74
2022-11-14T20:41:12.684Z,10.75
2022-11-14T20:43:39.970Z,10.71
2022-11-14T20:46:12.380Z,10.75
2022-11-14T20:48:39.765Z,10.76
2022-11-14T20:51:14.131Z,10.74
2022-11-14T20:53:42.870Z,10.65
2022-11-14T20:56:10.601Z,10.67
2022-11-14T20:58:37.450Z,10.78
2022-11-14T21:01:04.115Z,10.65
2022-11-14T21:03:31.426Z,10.46
2022-11-14T21:06:00.435Z,10.20
2022-11-14T21:08:27.447Z,10.33
2022-11-14T21:11:00.205Z,10.46
2022-11-14T21:13:45.904Z,10.56
2022-11-14T21:16:14.976Z,10.68
2022-11-14T21:18:47.575Z,10.70
2022-11-14T21:21:17.859Z,10.36
2022-11-14T21:23:46.330Z,10.52
2022-11-14T21:26:24.925Z,10.72
2022-11-14T21:28:54.904Z,10.71
2022-11-14T21:31:34.133Z,10.81
2022-11-14T21:34:03.427Z,10.86
2022-11-14T21:36:47.059Z,10.81
2022-11-14T21:39:15.837Z,10.75
2022-11-14T21:41:44.718Z,10.65
2022-11-14T21:44:13.675Z,10.69
2022-11-14T21:46:40.927Z,10.84
2022-11-14T21:49:07.607Z,10.95
2022-11-14T21:51:34.183Z,10.92
2022-11-14T21:54:03.883Z,10.96
2022-11-14T21:56:33.082Z,10.92
2022-11-14T21:59:14.264Z,10.75
2022-11-14T22:02:01.816Z,10.58
2022-11-14T22:04:29.311Z,10.41
2022-11-14T22:06:56.133Z,10.56
2022-11-14T22:09:25.942Z,10.46
2022-11-14T22:11:52.522Z,10.54
2022-11-14T22:14:19.154Z,10.54
2022-11-14T22:16:45.794Z,10.20
2022-11-14T22:19:12.390Z,10.20
2022-11-14T22:21:39.290Z,10.09
2022-11-14T22:24:06.249Z,10.20
2022-11-14T22:26:35.346Z,10.32
2022-11-14T22:29:02.018Z,10.37
2022-11-14T22:31:28.674Z,10.28
2022-11-14T22:33:57.838Z,10.27
2022-11-14T22:36:26.445Z,10.28
2022-11-14T22:38:54.497Z,10.31
2022-11-14T22:41:28.964Z,10.23
2022-11-14T22:43:58.976Z,10.20
2022-11-14T22:46:27.172Z,10.04
2022-11-14T22:48:54.554Z,10.08
2022-11-14T22:51:23.985Z,10.03
2022-11-14T22:53:52.649Z,10.02
2022-11-14T22:56:21.975Z,9.98
2022-11-14T22:58:49.090Z,9.87
2022-11-14T23:01:20.634Z,9.73
2022-11-14T23:03:50.772Z,9.72
2022-11-14T23:06:18.720Z,9.64
2022-11-14T23:08:45.424Z,9.67
2022-11-14T23:11:14.848Z,9.65
2022-11-14T23:13:44.064Z,9.73
2022-11-14T23:16:21.984Z,9.88
2022-11-14T23:18:49.730Z,9.82
2022-11-14T23:21:19.841Z,9.80
2022-11-14T23:23:47.041Z,9.65
2022-11-14T23:26:16.164Z,9.61
2022-11-14T23:28:42.789Z,9.81
2022-11-14T23:31:10.684Z,9.85
2022-11-14T23:33:37.482Z,9.84
2022-11-14T23:36:04.515Z,9.82
2022-11-14T23:38:31.252Z,9.72
2022-11-14T23:41:02.016Z,9.66
2022-11-14T23:43:29.833Z,9.61
2022-11-14T23:45:56.920Z,9.38
2022-11-14T23:48:24.421Z,9.60
2022-11-14T23:50:53.041Z,9.71
2022-11-14T23:53:20.205Z,9.65
2022-11-14T23:55:57.179Z,9.55
2022-11-14T23:58:25.341Z,9.40
